sensor_id;sensor_type;location;lat;lon;timestamp;pressure;altitude;pressure_sealevel;temperature;humidity
53300;BME280;39187;48.476;8.310;2023-04-26T00:01:20;91184.56;;;3.18;100.00
53300;BME280;39187;48.476;8.310;2023-04-26T00:03:46;91180.72;;;3.08;100.00
53300;BME280;39187;48.476;8.310;2023-04-26T00:06:11;91184.22;;;3.27;100.00
53300;BME280;39187;48.476;8.310;2023-04-26T00:08:39;91173.00;;;3.37;100.00
53300;BME280;39187;48.476;8.310;2023-04-26T00:11:06;91173.31;;;3.28;100.00
53300;BME280;39187;48.476;8.310;2023-04-26T00:13:32;91177.84;;;3.28;100.00
53300;BME280;39187;48.476;8.310;2023-04-26T00:15:57;91172.88;;;3.12;100.00
53300;BME280;39187;48.476;8.310;2023-04-26T00:18:22;91169.50;;;3.15;100.00
53300;BME280;39187;48.476;8.310;2023-04-26T00:20:48;91173.69;;;3.19;100.00
53300;BME280;39187;48.476;8.310;2023-04-26T00:23:13;91169.44;;;3.01;100.00
53300;BME280;39187;48.476;8.310;2023-04-26T00:25:39;91177.75;;;3.10;100.00
53300;BME280;39187;48.476;8.310;2023-04-26T00:28:04;91176.84;;;2.85;100.00
53300;BME280;39187;48.476;8.310;2023-04-26T00:30:30;91179.06;;;2.79;100.00
53300;BME280;39187;48.476;8.310;2023-04-26T00:32:56;91176.09;;;2.84;100.00
53300;BME280;39187;48.476;8.310;2023-04-26T00:35:22;91182.03;;;2.77;100.00
53300;BME280;39187;48.476;8.310;2023-04-26T00:37:47;91176.03;;;2.77;100.00
53300;BME280;39187;48.476;8.310;2023-04-26T00:40:13;91164.09;;;2.87;100.00
53300;BME280;39187;48.476;8.310;2023-04-26T00:42:40;91171.19;;;2.79;100.00
53300;BME280;39187;48.476;8.310;2023-04-26T00:45:06;91164.44;;;2.81;100.00
53300;BME280;39187;48.476;8.310;2023-04-26T00:47:32;91161.78;;;2.78;100.00
53300;BME280;39187;48.476;8.310;2023-04-26T00:49:58;91166.56;;;2.65;100.00
53300;BME280;39187;48.476;8.310;2023-04-26T00:52:26;91165.47;;;2.70;100.00
53300;BME280;39187;48.476;8.310;2023-04-26T00:54:53;91168.81;;;2.63;100.00
53300;BME280;39187;48.476;8.310;2023-04-26T00:57:20;91162.38;;;2.57;100.00
53300;BME280;39187;48.476;8.310;2023-04-26T00:59:46;91158.47;;;2.37;100.00
53300;BME280;39187;48.476;8.310;2023-04-26T01:02:12;91161.84;;;2.37;100.00
53300;BME280;39187;48.476;8.310;2023-04-26T01:04:37;91165.28;;;2.45;100.00
53300;BME280;39187;48.476;8.310;2023-04-26T01:07:06;91165.75;;;2.54;100.00
53300;BME280;39187;48.476;8.310;2023-04-26T01:09:32;91171.03;;;2.58;100.00
53300;BME280;39187;48.476;8.310;2023-04-26T01:11:59;91168.75;;;2.56;100.00
53300;BME280;39187;48.476;8.310;2023-04-26T01:14:24;91166.09;;;2.53;100.00
53300;BME280;39187;48.476;8.310;2023-04-26T01:16:51;91168.13;;;2.73;100.00
53300;BME280;39187;48.476;8.310;2023-04-26T01:19:17;91156.47;;;2.71;100.00
53300;BME280;39187;48.476;8.310;2023-04-26T01:21:43;91159.91;;;2.78;100.00
53300;BME280;39187;48.476;8.310;2023-04-26T01:24:09;91160.97;;;2.70;100.00
53300;BME280;39187;48.476;8.310;2023-04-26T01:26:36;91162.38;;;2.57;100.00
53300;BME280;39187;48.476;8.310;2023-04-26T01:29:19;91163.56;;;2.63;100.00
53300;BME280;39187;48.476;8.310;2023-04-26T01:31:45;91162.44;;;2.64;100.00
53300;BME280;39187;48.476;8.310;2023-04-26T01:34:11;91153.72;;;2.53;100.00
53300;BME280;39187;48.476;8.310;2023-04-26T01:36:37;91155.72;;;2.67;100.00
53300;BME280;39187;48.476;8.310;2023-04-26T01:39:03;91151.22;;;2.67;100.00
53300;BME280;39187;48.476;8.310;2023-04-26T01:41:28;91150.50;;;2.77;100.00
53300;BME280;39187;48.476;8.310;2023-04-26T01:43:54;91146.44;;;2.87;100.00
53300;BME280;39187;48.476;8.310;2023-04-26T01:46:20;91149.41;;;2.82;100.00
53300;BME280;39187;48.476;8.310;2023-04-26T01:48:46;91149.78;;;2.80;100.00
53300;BME280;39187;48.476;8.310;2023-04-26T01:51:12;91148.31;;;2.87;100.00
53300;BME280;39187;48.476;8.310;2023-04-26T01:53:37;91155.53;;;3.00;100.00
53300;BME280;39187;48.476;8.310;2023-04-26T01:56:03;91154.44;;;3.08;100.00
53300;BME280;39187;48.476;8.310;2023-04-26T01:58:30;91160.09;;;3.14;100.00
53300;BME280;39187;48.476;8.310;2023-04-26T02:01:03;91149.25;;;3.19;100.00
53300;BME280;39187;48.476;8.310;2023-04-26T02:03:28;91157.09;;;3.15;100.00
53300;BME280;39187;48.476;8.310;2023-04-26T02:05:54;91162.75;;;3.21;100.00
53300;BME280;39187;48.476;8.310;2023-04-26T02:08:19;91157.16;;;3.22;100.00
53300;BME280;39187;48.476;8.310;2023-04-26T02:10:45;91156.44;;;3.26;100.00
53300;BME280;39187;48.476;8.310;2023-04-26T02:13:10;91154.16;;;3.28;100.00
53300;BME280;39187;48.476;8.310;2023-04-26T02:15:36;91157.09;;;3.12;100.00
53300;BME280;39187;48.476;8.310;2023-04-26T02:18:01;91156.56;;;2.81;100.00
53300;BME280;39187;48.476;8.310;2023-04-26T02:20:27;91150.28;;;2.42;100.00
53300;BME280;39187;48.476;8.310;2023-04-26T02:22:52;91158.28;;;2.60;100.00
53300;BME280;39187;48.476;8.310;2023-04-26T02:25:18;91156.63;;;2.96;100.00
53300;BME280;39187;48.476;8.310;2023-04-26T02:27:43;91153.31;;;3.06;100.00
53300;BME280;39187;48.476;8.310;2023-04-26T02:30:09;91154.47;;;3.15;100.00
53300;BME280;39187;48.476;8.310;2023-04-26T02:32:35;91151.84;;;3.15;100.00
53300;BME280;39187;48.476;8.310;2023-04-26T02:35:00;91154.88;;;3.17;100.00
53300;BME280;39187;48.476;8.310;2023-04-26T02:37:26;91153.75;;;3.22;100.00
53300;BME280;39187;48.476;8.310;2023-04-26T02:39:52;91153.19;;;2.88;100.00
53300;BME280;39187;48.476;8.310;2023-04-26T02:42:17;91148.78;;;3.03;100.00
53300;BME280;39187;48.476;8.310;2023-04-26T02:44:43;91155.16;;;3.02;100.00
53300;BME280;39187;48.476;8.310;2023-04-26T02:47:08;91152.03;;;2.82;100.00
53300;BME280;39187;48.476;8.310;2023-04-26T02:49:34;91141.97;;;2.95;100.00
53300;BME280;39187;48.476;8.310;2023-04-26T02:51:59;91147.31;;;3.09;100.00
53300;BME280;39187;48.476;8.310;2023-04-26T02:54:25;91141.31;;;3.12;100.00
53300;BME280;39187;48.476;8.310;2023-04-26T02:56:50;91146.63;;;3.19;100.00
53300;BME280;39187;48.476;8.310;2023-04-26T02:59:16;91144.75;;;3.19;100.00
53300;BME280;39187;48.476;8.310;2023-04-26T03:01:42;91147.00;;;3.17;100.00
53300;BME280;39187;48.476;8.310;2023-04-26T03:04:07;91147.53;;;2.79;100.00
53300;BME280;39187;48.476;8.310;2023-04-26T03:06:33;91149.94;;;3.05;100.00
53300;BME280;39187;48.476;8.310;2023-04-26T03:08:59;91141.28;;;3.08;100.00
53300;BME280;39187;48.476;8.310;2023-04-26T03:11:24;91137.47;;;2.92;100.00
53300;BME280;39187;48.476;8.310;2023-04-26T03:13:50;91137.13;;;3.00;100.00
53300;BME280;39187;48.476;8.310;2023-04-26T03:16:18;91126.94;;;2.95;100.00
53300;BME280;39187;48.476;8.310;2023-04-26T03:18:44;91130.34;;;2.96;100.00
53300;BME280;39187;48.476;8.310;2023-04-26T03:21:09;91131.44;;;2.91;100.00
53300;BME280;39187;48.476;8.310;2023-04-26T03:23:36;91132.59;;;2.94;100.00
53300;BME280;39187;48.476;8.310;2023-04-26T03:26:01;91134.41;;;2.82;100.00
53300;BME280;39187;48.476;8.310;2023-04-26T03:28:27;91129.53;;;2.88;100.00
53300;BME280;39187;48.476;8.310;2023-04-26T03:30:53;91140.03;;;2.85;100.00
53300;BME280;39187;48.476;8.310;2023-04-26T03:33:18;91132.97;;;2.92;100.00
53300;BME280;39187;48.476;8.310;2023-04-26T03:35:44;91137.09;;;2.93;100.00
53300;BME280;39187;48.476;8.310;2023-04-26T03:38:09;91135.22;;;2.94;100.00
53300;BME280;39187;48.476;8.310;2023-04-26T03:40:35;91135.59;;;2.96;100.00
53300;BME280;39187;48.476;8.310;2023-04-26T03:43:01;91129.19;;;2.86;100.00
53300;BME280;39187;48.476;8.310;2023-04-26T03:45:26;91131.31;;;2.70;100.00
53300;BME280;39187;48.476;8.310;2023-04-26T03:47:52;91136.25;;;2.82;100.00
53300;BME280;39187;48.476;8.310;2023-04-26T03:50:17;91131.41;;;2.80;100.00
53300;BME280;39187;48.476;8.310;2023-04-26T03:52:43;91137.19;;;2.49;100.00
53300;BME280;39187;48.476;8.310;2023-04-26T03:55:09;91126.72;;;2.53;100.00
53300;BME280;39187;48.476;8.310;2023-04-26T03:57:36;91128.53;;;2.45;100.00
53300;BME280;39187;48.476;8.310;2023-04-26T04:00:02;91127.75;;;2.45;100.00
53300;BME280;39187;48.476;8.310;2023-04-26T04:02:32;91130.81;;;2.50;100.00
53300;BME280;39187;48.476;8.310;2023-04-26T04:04:58;91125.63;;;2.10;100.00
53300;BME280;39187;48.476;8.310;2023-04-26T04:07:23;91119.41;;;2.32;100.00
53300;BME280;39187;48.476;8.310;2023-04-26T04:09:49;91127.44;;;2.50;100.00
53300;BME280;39187;48.476;8.310;2023-04-26T04:12:15;91119.41;;;2.32;100.00
53300;BME280;39187;48.476;8.310;2023-04-26T04:14:41;91128.13;;;2.39;100.00
53300;BME280;39187;48.476;8.310;2023-04-26T04:17:06;91120.94;;;2.33;100.00
53300;BME280;39187;48.476;8.310;2023-04-26T04:19:32;91121.56;;;2.19;100.00
53300;BME280;39187;48.476;8.310;2023-04-26T04:21:58;91122.63;;;2.08;100.00
53300;BME280;39187;48.476;8.310;2023-04-26T04:24:23;91130.31;;;2.34;100.00
53300;BME280;39187;48.476;8.310;2023-04-26T04:26:49;91126.47;;;2.17;100.00
53300;BME280;39187;48.476;8.310;2023-04-26T04:29:15;91133.72;;;2.38;100.00
53300;BME280;39187;48.476;8.310;2023-04-26T04:31:40;91136.69;;;2.29;100.00
53300;BME280;39187;48.476;8.310;2023-04-26T04:34:06;91136.41;;;2.45;100.00
53300;BME280;39187;48.476;8.310;2023-04-26T04:36:33;91139.09;;;2.52;100.00
53300;BME280;39187;48.476;8.310;2023-04-26T04:38:58;91138.03;;;2.64;100.00
53300;BME280;39187;48.476;8.310;2023-04-26T04:41:24;91132.34;;;2.55;100.00
53300;BME280;39187;48.476;8.310;2023-04-26T04:43:49;91132.19;;;2.30;100.00
53300;BME280;39187;48.476;8.310;2023-04-26T04:46:15;91134.13;;;1.96;100.00
53300;BME280;39187;48.476;8.310;2023-04-26T04:48:41;91132.75;;;2.09;100.00
53300;BME280;39187;48.476;8.310;2023-04-26T04:51:07;91142.38;;;1.94;100.00
53300;BME280;39187;48.476;8.310;2023-04-26T04:53:33;91138.50;;;1.81;100.00
53300;BME280;39187;48.476;8.310;2023-04-26T04:55:58;91147.41;;;2.10;100.00
53300;BME280;39187;48.476;8.310;2023-04-26T04:58:24;91146.50;;;1.95;100.00
53300;BME280;39187;48.476;8.310;2023-04-26T05:00:50;91149.56;;;2.01;100.00
53300;BME280;39187;48.476;8.310;2023-04-26T05:03:15;91147.84;;;2.19;100.00
53300;BME280;39187;48.476;8.310;2023-04-26T05:05:41;91155.28;;;2.14;100.00
53300;BME280;39187;48.476;8.310;2023-04-26T05:08:06;91169.16;;;2.11;100.00
53300;BME280;39187;48.476;8.310;2023-04-26T05:10:33;91164.31;;;2.16;100.00
53300;BME280;39187;48.476;8.310;2023-04-26T05:12:59;91161.66;;;2.13;100.00
53300;BME280;39187;48.476;8.310;2023-04-26T05:15:25;91160.25;;;2.22;100.00
53300;BME280;39187;48.476;8.310;2023-04-26T05:17:50;91166.34;;;2.37;100.00
53300;BME280;39187;48.476;8.310;2023-04-26T05:20:16;91175.16;;;2.55;100.00
53300;BME280;39187;48.476;8.310;2023-04-26T05:22:41;91178.59;;;2.66;100.00
53300;BME280;39187;48.476;8.310;2023-04-26T05:25:07;91178.63;;;2.22;100.00
53300;BME280;39187;48.476;8.310;2023-04-26T05:27:35;91176.59;;;2.49;100.00
53300;BME280;39187;48.476;8.310;2023-04-26T05:30:05;91183.03;;;2.59;100.00
53300;BME280;39187;48.476;8.310;2023-04-26T05:32:30;91170.13;;;2.36;100.00
53300;BME280;39187;48.476;8.310;2023-04-26T05:34:57;91178.06;;;2.47;100.00
53300;BME280;39187;48.476;8.310;2023-04-26T05:37:22;91173.34;;;2.66;100.00
53300;BME280;39187;48.476;8.310;2023-04-26T05:39:48;91171.94;;;2.32;100.00
53300;BME280;39187;48.476;8.310;2023-04-26T05:42:14;91166.84;;;2.50;100.00
53300;BME280;39187;48.476;8.310;2023-04-26T05:44:39;91170.69;;;2.15;100.00
53300;BME280;39187;48.476;8.310;2023-04-26T05:47:05;91170.00;;;2.22;100.00
53300;BME280;39187;48.476;8.310;2023-04-26T05:49:30;91174.28;;;2.44;100.00
53300;BME280;39187;48.476;8.310;2023-04-26T05:51:58;91175.81;;;2.45;100.00
53300;BME280;39187;48.476;8.310;2023-04-26T05:54:25;91181.72;;;2.35;100.00
53300;BME280;39187;48.476;8.310;2023-04-26T05:56:50;91183.72;;;3.03;100.00
53300;BME280;39187;48.476;8.310;2023-04-26T05:59:16;91185.53;;;3.65;100.00
53300;BME280;39187;48.476;8.310;2023-04-26T06:01:42;91185.22;;;3.91;100.00
53300;BME280;39187;48.476;8.310;2023-04-26T06:04:07;91186.09;;;4.80;100.00
53300;BME280;39187;48.476;8.310;2023-04-26T06:06:33;91190.97;;;4.85;100.00
53300;BME280;39187;48.476;8.310;2023-04-26T06:08:58;91199.63;;;5.07;100.00
53300;BME280;39187;48.476;8.310;2023-04-26T06:11:24;91204.88;;;5.00;100.00
53300;BME280;39187;48.476;8.310;2023-04-26T06:13:51;91208.69;;;4.53;100.00
53300;BME280;39187;48.476;8.310;2023-04-26T06:16:16;91210.94;;;4.97;100.00
53300;BME280;39187;48.476;8.310;2023-04-26T06:18:42;91209.06;;;4.58;100.00
53300;BME280;39187;48.476;8.310;2023-04-26T06:21:07;91204.91;;;4.47;100.00
53300;BME280;39187;48.476;8.310;2023-04-26T06:23:33;91202.94;;;4.04;100.00
53300;BME280;39187;48.476;8.310;2023-04-26T06:25:58;91205.66;;;4.58;100.00
53300;BME280;39187;48.476;8.310;2023-04-26T06:28:24;91208.31;;;4.75;100.00
53300;BME280;39187;48.476;8.310;2023-04-26T06:30:50;91210.19;;;4.61;100.00
53300;BME280;39187;48.476;8.310;2023-04-26T06:33:15;91206.78;;;4.39;100.00
53300;BME280;39187;48.476;8.310;2023-04-26T06:35:41;91205.28;;;4.56;100.00
53300;BME280;39187;48.476;8.310;2023-04-26T06:38:07;91203.41;;;4.81;100.00
53300;BME280;39187;48.476;8.310;2023-04-26T06:40:33;91208.28;;;4.68;100.00
53300;BME280;39187;48.476;8.310;2023-04-26T06:43:01;91208.25;;;4.15;100.00
53300;BME280;39187;48.476;8.310;2023-04-26T06:45:26;91202.63;;;4.56;100.00
53300;BME280;39187;48.476;8.310;2023-04-26T06:47:52;91199.63;;;4.47;100.00
53300;BME280;39187;48.476;8.310;2023-04-26T06:50:17;91209.72;;;4.13;100.00
53300;BME280;39187;48.476;8.310;2023-04-26T06:52:43;91202.66;;;4.70;100.00
53300;BME280;39187;48.476;8.310;2023-04-26T06:55:09;91201.53;;;4.53;100.00
53300;BME280;39187;48.476;8.310;2023-04-26T06:57:35;91194.34;;;4.32;100.00
53300;BME280;39187;48.476;8.310;2023-04-26T07:00:01;91193.97;;;4.44;100.00
53300;BME280;39187;48.476;8.310;2023-04-26T07:02:28;91194.22;;;3.79;100.00
53300;BME280;39187;48.476;8.310;2023-04-26T07:04:53;91191.53;;;3.69;100.00
53300;BME280;39187;48.476;8.310;2023-04-26T07:07:19;91192.78;;;4.10;100.00
53300;BME280;39187;48.476;8.310;2023-04-26T07:09:46;91188.28;;;4.11;100.00
53300;BME280;39187;48.476;8.310;2023-04-26T07:12:12;91186.03;;;4.20;100.00
53300;BME280;39187;48.476;8.310;2023-04-26T07:14:38;91187.84;;;3.84;100.00
53300;BME280;39187;48.476;8.310;2023-04-26T07:17:08;91180.00;;;4.12;100.00
53300;BME280;39187;48.476;8.310;2023-04-26T07:19:34;91192.00;;;3.88;100.00
53300;BME280;39187;48.476;8.310;2023-04-26T07:21:59;91184.53;;;4.08;100.00
53300;BME280;39187;48.476;8.310;2023-04-26T07:24:26;91187.53;;;4.07;100.00
53300;BME280;39187;48.476;8.310;2023-04-26T07:26:51;91190.00;;;3.57;100.00
53300;BME280;39187;48.476;8.310;2023-04-26T07:29:17;91192.25;;;3.58;100.00
53300;BME280;39187;48.476;8.310;2023-04-26T07:31:45;91188.66;;;4.06;100.00
53300;BME280;39187;48.476;8.310;2023-04-26T07:34:11;91189.72;;;3.83;100.00
53300;BME280;39187;48.476;8.310;2023-04-26T07:36:37;91190.16;;;4.07;100.00
53300;BME280;39187;48.476;8.310;2023-04-26T07:39:02;91199.09;;;3.81;100.00
53300;BME280;39187;48.476;8.310;2023-04-26T07:41:30;91198.34;;;3.80;100.00
53300;BME280;39187;48.476;8.310;2023-04-26T07:43:55;91200.28;;;3.94;100.00
53300;BME280;39187;48.476;8.310;2023-04-26T07:46:21;91197.66;;;4.04;100.00
53300;BME280;39187;48.476;8.310;2023-04-26T07:48:47;91198.97;;;3.52;100.00
53300;BME280;39187;48.476;8.310;2023-04-26T07:51:12;91195.41;;;4.10;100.00
53300;BME280;39187;48.476;8.310;2023-04-26T07:53:39;91189.38;;;3.99;100.00
53300;BME280;39187;48.476;8.310;2023-04-26T07:56:06;91190.16;;;4.14;100.00
53300;BME280;39187;48.476;8.310;2023-04-26T07:58:33;91195.34;;;3.85;100.00
53300;BME280;39187;48.476;8.310;2023-04-26T08:00:59;91201.44;;;4.07;100.00
53300;BME280;39187;48.476;8.310;2023-04-26T08:03:25;91199.44;;;3.72;100.00
53300;BME280;39187;48.476;8.310;2023-04-26T08:05:54;91203.72;;;4.30;100.00
53300;BME280;39187;48.476;8.310;2023-04-26T08:08:20;91202.09;;;3.79;100.00
53300;BME280;39187;48.476;8.310;2023-04-26T08:10:46;91206.28;;;3.87;100.00
53300;BME280;39187;48.476;8.310;2023-04-26T08:13:12;91212.69;;;3.93;100.00
53300;BME280;39187;48.476;8.310;2023-04-26T08:15:38;91218.03;;;4.25;100.00
53300;BME280;39187;48.476;8.310;2023-04-26T08:18:03;91213.06;;;3.88;100.00
53300;BME280;39187;48.476;8.310;2023-04-26T08:20:29;91218.41;;;4.20;100.00
53300;BME280;39187;48.476;8.310;2023-04-26T08:22:57;91216.91;;;4.19;100.00
53300;BME280;39187;48.476;8.310;2023-04-26T08:25:23;91214.25;;;4.19;100.00
53300;BME280;39187;48.476;8.310;2023-04-26T08:27:49;91212.41;;;4.34;100.00
53300;BME280;39187;48.476;8.310;2023-04-26T08:30:15;91209.41;;;4.50;100.00
53300;BME280;39187;48.476;8.310;2023-04-26T08:32:40;91209.41;;;4.57;100.00
53300;BME280;39187;48.476;8.310;2023-04-26T08:35:07;91216.19;;;4.61;100.00
53300;BME280;39187;48.476;8.310;2023-04-26T08:37:33;91213.91;;;5.13;100.00
53300;BME280;39187;48.476;8.310;2023-04-26T08:40:00;91207.84;;;5.44;100.00
53300;BME280;39187;48.476;8.310;2023-04-26T08:42:27;91208.59;;;5.55;100.00
53300;BME280;39187;48.476;8.310;2023-04-26T08:44:53;91210.47;;;5.48;100.00
53300;BME280;39187;48.476;8.310;2023-04-26T08:50:00;91213.66;;;6.09;100.00
53300;BME280;39187;48.476;8.310;2023-04-26T08:52:30;91204.13;;;6.32;100.00
53300;BME280;39187;48.476;8.310;2023-04-26T08:54:56;91209.47;;;6.25;100.00
53300;BME280;39187;48.476;8.310;2023-04-26T08:57:23;91210.66;;;6.14;99.75
53300;BME280;39187;48.476;8.310;2023-04-26T08:59:50;91204.66;;;6.06;96.12
53300;BME280;39187;48.476;8.310;2023-04-26T09:02:19;91196.63;;;6.24;99.39
53300;BME280;39187;48.476;8.310;2023-04-26T09:04:45;91196.44;;;6.56;96.55
53300;BME280;39187;48.476;8.310;2023-04-26T09:07:25;91200.53;;;6.64;96.70
53300;BME280;39187;48.476;8.310;2023-04-26T09:09:57;91205.47;;;5.78;97.59
53300;BME280;39187;48.476;8.310;2023-04-26T09:12:23;91197.78;;;6.19;97.27
53300;BME280;39187;48.476;8.310;2023-04-26T09:14:50;91201.66;;;6.00;99.30
53300;BME280;39187;48.476;8.310;2023-04-26T09:17:29;91195.53;;;6.18;97.66
53300;BME280;39187;48.476;8.310;2023-04-26T09:19:56;91205.94;;;6.46;97.82
53300;BME280;39187;48.476;8.310;2023-04-26T09:22:35;91194.03;;;6.75;95.43
53300;BME280;39187;48.476;8.310;2023-04-26T09:25:02;91195.47;;;7.28;93.60
53300;BME280;39187;48.476;8.310;2023-04-26T09:27:37;91199.78;;;7.52;90.52
53300;BME280;39187;48.476;8.310;2023-04-26T09:30:07;91189.44;;;7.28;91.23
53300;BME280;39187;48.476;8.310;2023-04-26T09:32:55;91188.09;;;7.05;94.91
53300;BME280;39187;48.476;8.310;2023-04-26T09:35:25;91191.56;;;6.47;96.42
53300;BME280;39187;48.476;8.310;2023-04-26T09:40:32;91195.91;;;6.16;93.42
53300;BME280;39187;48.476;8.310;2023-04-26T09:43:03;91199.88;;;6.49;91.37
53300;BME280;39187;48.476;8.310;2023-04-26T09:45:30;91195.44;;;6.28;93.18
53300;BME280;39187;48.476;8.310;2023-04-26T09:48:16;91192.25;;;6.58;91.29
53300;BME280;39187;48.476;8.310;2023-04-26T09:50:43;91196.56;;;6.34;92.66
53300;BME280;39187;48.476;8.310;2023-04-26T09:53:11;91197.22;;;6.53;93.75
53300;BME280;39187;48.476;8.310;2023-04-26T09:55:48;91186.22;;;6.54;93.12
53300;BME280;39187;48.476;8.310;2023-04-26T09:58:14;91190.50;;;6.34;90.48
53300;BME280;39187;48.476;8.310;2023-04-26T10:00:42;91191.50;;;5.92;92.49
53300;BME280;39187;48.476;8.310;2023-04-26T10:03:08;91193.75;;;5.93;93.46
53300;BME280;39187;48.476;8.310;2023-04-26T10:05:35;91193.25;;;6.16;92.38
53300;BME280;39187;48.476;8.310;2023-04-26T10:08:01;91199.69;;;6.15;92.58
53300;BME280;39187;48.476;8.310;2023-04-26T10:10:29;91193.28;;;6.13;94.54
53300;BME280;39187;48.476;8.310;2023-04-26T10:12:56;91197.88;;;5.98;95.35
53300;BME280;39187;48.476;8.310;2023-04-26T10:15:21;91196.06;;;5.70;95.34
53300;BME280;39187;48.476;8.310;2023-04-26T10:17:47;91194.53;;;5.76;93.00
53300;BME280;39187;48.476;8.310;2023-04-26T10:20:14;91206.63;;;5.70;95.33
53300;BME280;39187;48.476;8.310;2023-04-26T10:22:45;91200.63;;;5.59;97.82
53300;BME280;39187;48.476;8.310;2023-04-26T10:25:15;91205.88;;;5.73;96.83
53300;BME280;39187;48.476;8.310;2023-04-26T10:30:13;91204.38;;;5.65;94.19
53300;BME280;39187;48.476;8.310;2023-04-26T10:35:19;91202.00;;;6.02;93.97
53300;BME280;39187;48.476;8.310;2023-04-26T10:38:12;91200.34;;;6.30;91.62
53300;BME280;39187;48.476;8.310;2023-04-26T10:40:39;91196.75;;;5.95;88.59
53300;BME280;39187;48.476;8.310;2023-04-26T10:45:35;91193.56;;;6.88;89.78
53300;BME280;39187;48.476;8.310;2023-04-26T10:53:31;91195.56;;;7.92;77.86
53300;BME280;39187;48.476;8.310;2023-04-26T10:55:57;91195.38;;;8.06;73.26
53300;BME280;39187;48.476;8.310;2023-04-26T10:58:33;91183.63;;;8.07;72.88
53300;BME280;39187;48.476;8.310;2023-04-26T11:01:19;91182.00;;;7.49;74.88
53300;BME280;39187;48.476;8.310;2023-04-26T11:06:23;91179.97;;;7.64;73.80
53300;BME280;39187;48.476;8.310;2023-04-26T11:08:49;91168.47;;;7.78;76.60
53300;BME280;39187;48.476;8.310;2023-04-26T11:11:16;91157.53;;;8.06;76.79
53300;BME280;39187;48.476;8.310;2023-04-26T11:13:45;91157.78;;;8.15;74.39
53300;BME280;39187;48.476;8.310;2023-04-26T11:16:12;91152.88;;;8.14;73.53
53300;BME280;39187;48.476;8.310;2023-04-26T11:18:47;91158.94;;;8.44;70.43
53300;BME280;39187;48.476;8.310;2023-04-26T11:21:12;91159.38;;;8.39;72.19
53300;BME280;39187;48.476;8.310;2023-04-26T11:23:42;91152.47;;;8.15;69.84
53300;BME280;39187;48.476;8.310;2023-04-26T11:26:08;91145.16;;;7.96;66.04
53300;BME280;39187;48.476;8.310;2023-04-26T11:28:35;91154.00;;;8.16;66.38
53300;BME280;39187;48.476;8.310;2023-04-26T11:31:05;91159.28;;;8.16;65.48
53300;BME280;39187;48.476;8.310;2023-04-26T11:33:31;91156.09;;;8.32;64.46
53300;BME280;39187;48.476;8.310;2023-04-26T11:35:58;91153.09;;;8.57;63.18
53300;BME280;39187;48.476;8.310;2023-04-26T11:38:27;91155.41;;;8.78;63.02
53300;BME280;39187;48.476;8.310;2023-04-26T11:40:56;91156.78;;;8.63;62.21
53300;BME280;39187;48.476;8.310;2023-04-26T11:43:43;91149.97;;;8.85;63.26
53300;BME280;39187;48.476;8.310;2023-04-26T11:46:08;91148.53;;;9.04;64.95
53300;BME280;39187;48.476;8.310;2023-04-26T11:48:35;91138.22;;;9.09;63.69
53300;BME280;39187;48.476;8.310;2023-04-26T11:51:03;91137.06;;;8.64;64.20
53300;BME280;39187;48.476;8.310;2023-04-26T11:56:02;91139.06;;;9.26;63.00
53300;BME280;39187;48.476;8.310;2023-04-26T11:58:28;91132.81;;;9.36;62.90
53300;BME280;39187;48.476;8.310;2023-04-26T12:00:58;91144.28;;;8.06;70.24
53300;BME280;39187;48.476;8.310;2023-04-26T12:03:29;91145.47;;;8.01;70.12
53300;BME280;39187;48.476;8.310;2023-04-26T12:05:54;91142.34;;;8.10;66.67
53300;BME280;39187;48.476;8.310;2023-04-26T12:08:26;91137.91;;;8.57;65.56
53300;BME280;39187;48.476;8.310;2023-04-26T12:10:52;91139.66;;;8.40;67.06
53300;BME280;39187;48.476;8.310;2023-04-26T12:13:18;91135.19;;;7.77;71.39
53300;BME280;39187;48.476;8.310;2023-04-26T12:15:44;91137.41;;;7.48;70.40
53300;BME280;39187;48.476;8.310;2023-04-26T12:18:11;91136.59;;;7.85;71.44
53300;BME280;39187;48.476;8.310;2023-04-26T12:20:38;91148.78;;;7.45;71.86
53300;BME280;39187;48.476;8.310;2023-04-26T12:23:05;91150.47;;;7.96;71.76
53300;BME280;39187;48.476;8.310;2023-04-26T12:25:33;91146.03;;;8.16;71.85
53300;BME280;39187;48.476;8.310;2023-04-26T12:27:59;91148.75;;;8.13;70.24
53300;BME280;39187;48.476;8.310;2023-04-26T12:30:27;91144.63;;;7.78;68.59
53300;BME280;39187;48.476;8.310;2023-04-26T12:32:53;91142.06;;;7.71;66.71
53300;BME280;39187;48.476;8.310;2023-04-26T12:35:21;91143.50;;;7.75;67.21
53300;BME280;39187;48.476;8.310;2023-04-26T12:37:46;91148.78;;;7.45;68.83
53300;BME280;39187;48.476;8.310;2023-04-26T12:40:13;91144.84;;;7.60;67.54
53300;BME280;39187;48.476;8.310;2023-04-26T12:42:40;91143.03;;;7.50;68.52
53300;BME280;39187;48.476;8.310;2023-04-26T12:45:06;91142.69;;;7.82;68.70
53300;BME280;39187;48.476;8.310;2023-04-26T12:47:32;91142.91;;;7.94;67.97
53300;BME280;39187;48.476;8.310;2023-04-26T12:49:58;91141.97;;;8.08;69.50
53300;BME280;39187;48.476;8.310;2023-04-26T12:52:26;91139.13;;;8.22;70.15
53300;BME280;39187;48.476;8.310;2023-04-26T12:54:52;91139.44;;;8.31;70.00
53300;BME280;39187;48.476;8.310;2023-04-26T12:57:18;91135.81;;;8.45;67.99
53300;BME280;39187;48.476;8.310;2023-04-26T12:59:45;91124.94;;;8.86;67.49
53300;BME280;39187;48.476;8.310;2023-04-26T13:02:10;91120.72;;;8.42;67.35
53300;BME280;39187;48.476;8.310;2023-04-26T13:04:36;91132.84;;;8.39;64.77
53300;BME280;39187;48.476;8.310;2023-04-26T13:07:02;91134.53;;;7.99;63.17
53300;BME280;39187;48.476;8.310;2023-04-26T13:09:28;91146.94;;;8.36;63.63
53300;BME280;39187;48.476;8.310;2023-04-26T13:11:54;91144.09;;;8.74;63.10
53300;BME280;39187;48.476;8.310;2023-04-26T13:14:19;91137.59;;;9.02;60.55
53300;BME280;39187;48.476;8.310;2023-04-26T13:16:47;91137.50;;;9.29;59.98
53300;BME280;39187;48.476;8.310;2023-04-26T13:19:13;91151.72;;;8.45;60.50
53300;BME280;39187;48.476;8.310;2023-04-26T13:21:39;91147.16;;;8.45;60.66
53300;BME280;39187;48.476;8.310;2023-04-26T13:24:06;91142.19;;;8.74;62.30